Time;durP1;ratioP1;P1;durP2;ratioP2;P2;SDS_P1;SDS_P2;PMS_P1;PMS_P2;Temp;Humidity;BMP_temperature;BMP_pressure;BME280_temperature;BME280_humidity;BME280_pressure;Samples;Min_cycle;Max_cycle;Signal;HPM_P1;HPM_P2
2021/08/02 00:01:14;;;;;;;0.70;0.60;;;;;;;16.49;100.00;53486.72;5032713;28;20537;-71
2021/08/02 00:03:47;;;;;;;0.70;0.70;;;;;;;16.52;100.00;53489.56;5034789;28;20418;-70
2021/08/02 00:06:21;;;;;;;0.70;0.60;;;;;;;16.60;100.00;53166.16;5034457;28;20466;-71
2021/08/02 00:08:56;;;;;;;0.70;0.70;;;;;;;16.53;100.00;52497.69;5033605;28;20555;-70
2021/08/02 00:11:32;;;;;;;0.70;0.60;;;;;;;16.50;100.00;52494.91;5040459;28;20817;-71
2021/08/02 00:14:03;;;;;;;0.70;0.60;;;;;;;16.50;100.00;52164.50;5052365;28;20432;-70
2021/08/02 00:16:34;;;;;;;3.87;1.13;;;;;;;16.52;100.00;52165.91;5054118;28;20493;-71
2021/08/02 00:19:08;;;;;;;0.80;0.70;;;;;;;16.50;100.00;52164.06;5053012;28;20444;-71
2021/08/02 00:21:36;;;;;;;0.80;0.70;;;;;;;16.48;100.00;52162.66;5052945;28;20822;-71
2021/08/02 00:24:04;;;;;;;0.70;0.60;;;;;;;16.54;100.00;52829.53;5053337;28;20467;-71
2021/08/02 00:26:31;;;;;;;0.80;0.70;;;;;;;16.51;100.00;53158.13;5052126;28;20529;-71
2021/08/02 00:29:01;;;;;;;0.80;0.70;;;;;;;16.49;100.00;52493.97;5054424;28;20410;-71
2021/08/02 00:31:31;;;;;;;0.80;0.70;;;;;;;16.47;100.00;52492.56;5040484;28;20466;-70
2021/08/02 00:33:58;;;;;;;0.77;0.70;;;;;;;16.42;100.00;52157.56;5033628;28;20427;-71
2021/08/02 00:36:32;;;;;;;0.70;0.60;;;;;;;16.37;100.00;51822.16;5051108;28;20441;-71
2021/08/02 00:39:04;;;;;;;0.70;0.70;;;;;;;16.34;100.00;51157.97;5052722;28;20453;-71
2021/08/02 00:42:16;;;;;;;0.80;0.80;;;;;;;16.37;100.00;50830.06;5053463;28;20405;-71
2021/08/02 00:45:07;;;;;;;0.80;0.80;;;;;;;16.28;100.00;50160.78;5052486;28;20417;-71
2021/08/02 00:47:38;;;;;;;0.70;0.70;;;;;;;16.30;100.00;49832.03;5050794;28;20419;-70
2021/08/02 00:50:08;;;;;;;0.70;0.60;;;;;;;16.25;100.00;49166.25;5052552;28;20420;-71
2021/08/02 00:52:40;;;;;;;0.80;0.70;;;;;;;16.24;100.00;48835.44;5047428;28;20464;-70
2021/08/02 00:55:11;;;;;;;0.70;0.67;;;;;;;16.13;100.00;47835.00;5049368;28;20440;-71
2021/08/02 00:57:41;;;;;;;0.80;0.70;;;;;;;16.04;100.00;47167.00;5031598;28;20434;-71
2021/08/02 01:00:14;;;;;;;0.70;0.70;;;;;;;15.92;100.00;45507.88;5043941;28;20488;-71
2021/08/02 01:02:51;;;;;;;0.70;0.70;;;;;;;15.89;100.00;44186.19;5035904;28;20436;-71
2021/08/02 01:05:21;;;;;;;0.70;0.60;;;;;;;15.86;100.00;43194.75;5052869;28;20470;-71
2021/08/02 01:07:57;;;;;;;0.70;0.60;;;;;;;15.89;100.00;41878.41;5035480;28;20868;-71
2021/08/02 01:10:32;;;;;;;0.80;0.70;;;;;;;15.94;100.00;40893.72;5052075;28;20436;-71
2021/08/02 01:13:05;;;;;;;0.70;0.70;;;;;;;16.03;100.00;40241.47;5034921;28;20494;-71
2021/08/02 01:15:38;;;;;;;0.70;0.70;;;;;;;16.10;100.00;38599.28;5046337;28;20509;-71
2021/08/02 01:18:09;;;;;;;0.70;0.60;;;;;;;16.22;100.00;37949.06;5036124;28;20472;-71
2021/08/02 01:20:42;;;;;;;0.70;0.63;;;;;;;16.31;100.00;37296.66;5053056;28;20416;-71
2021/08/02 01:23:14;;;;;;;0.70;0.70;;;;;;;16.31;100.00;36638.16;5048553;28;20482;-70
2021/08/02 01:26:14;;;;;;;0.70;0.70;;;;;;;16.43;100.00;36280.91;5052125;28;20928;-71
2021/08/02 01:29:18;;;;;;;0.70;0.60;;;;;;;16.43;100.00;35967.09;5052536;28;20893;-71
2021/08/02 01:31:46;;;;;;;0.70;0.60;;;;;;;16.42;100.00;35590.97;5039186;28;20561;-71
2021/08/02 01:34:20;;;;;;;0.70;0.60;;;;;;;16.53;100.00;35404.59;5032250;28;20810;-71
2021/08/02 01:36:47;;;;;;;0.70;0.70;;;;;;;16.54;100.00;35104.34;5015633;28;20453;-71
2021/08/02 01:39:16;;;;;;;0.70;0.63;;;;;;;16.47;100.00;34850.38;5023084;28;20480;-71
2021/08/02 01:41:44;;;;;;;0.70;0.70;;;;;;;16.43;100.00;34609.34;5051892;28;20517;-71
2021/08/02 01:44:12;;;;;;;0.70;0.70;;;;;;;16.40;100.00;33939.06;5051845;28;20540;-71
2021/08/02 01:46:46;;;;;;;0.70;0.70;;;;;;;16.37;100.00;33505.09;5051117;28;20879;-70
2021/08/02 01:49:22;;;;;;;0.70;0.67;;;;;;;16.32;100.00;32726.38;5036625;28;20455;-70
2021/08/02 01:51:54;;;;;;;0.70;0.67;;;;;;;16.37;100.00;32570.09;5031976;28;20473;-71
2021/08/02 01:54:43;;;;;;;0.70;0.60;;;;;;;16.35;100.00;32607.44;5031124;28;20445;-71
2021/08/02 01:57:19;;;;;;;0.77;0.70;;;;;;;16.35;100.00;31836.50;5030812;28;20935;-71
2021/08/02 02:00:11;;;;;;;0.70;0.70;;;;;;;16.27;100.00;31269.66;5031928;28;20470;-71
2021/08/02 02:02:53;;;;;;;0.80;0.70;;;;;;;16.29;100.00;31301.66;5031620;28;20807;-71
2021/08/02 02:05:57;;;;;;;0.70;0.70;;;;;;;16.25;100.00;30713.94;5022225;28;20461;-71
2021/08/02 02:08:56;;;;;;;0.70;0.70;;;;;;;16.19;100.00;30263.84;5047031;28;20449;-70
2021/08/02 02:11:28;;;;;;;0.70;0.60;;;;;;;16.22;100.00;29936.75;5052799;28;20975;-71
2021/08/02 02:14:09;;;;;;;0.70;0.60;;;;;;;16.16;100.00;29497.41;5050780;28;20506;-71
2021/08/02 02:16:40;;;;;;;0.70;0.60;;;;;;;16.18;100.00;29118.78;5049557;28;20450;-71
2021/08/02 02:19:11;;;;;;;0.70;0.70;;;;;;;16.13;100.00;28215.66;5053035;28;20418;-71
2021/08/02 02:21:39;;;;;;;0.80;0.70;;;;;;;16.11;100.00;27545.28;5051457;28;20441;-71
2021/08/02 02:24:10;;;;;;;0.73;0.70;;;;;;;16.09;100.00;26810.97;5051955;28;20810;-71
2021/08/02 02:26:42;;;;;;;0.70;0.63;;;;;;;16.12;100.00;26253.66;5035291;28;20453;-71
2021/08/02 02:29:11;;;;;;;0.77;0.70;;;;;;;16.14;100.00;25521.59;5052671;28;20411;-71
2021/08/02 02:31:41;;;;;;;0.80;0.77;;;;;;;16.17;100.00;24782.72;5033607;28;20561;-70
2021/08/02 02:34:10;;;;;;;0.70;0.70;;;;;;;16.12;100.00;24280.50;5047263;28;20419;-71
2021/08/02 02:36:40;;;;;;;0.80;0.70;;;;;;;16.12;100.00;23896.50;5051404;28;20483;-71
2021/08/02 02:39:11;;;;;;;1.10;1.00;;;;;;;16.13;100.00;23353.75;5048004;28;20449;-70
2021/08/02 02:41:43;;;;;;;0.70;0.70;;;;;;;16.11;100.00;22758.72;5050653;28;20477;-71
2021/08/02 02:44:18;;;;;;;0.73;0.70;;;;;;;16.10;100.00;22307.66;5051102;28;20427;-71
2021/08/02 02:46:47;;;;;;;0.70;0.70;;;;;;;16.11;100.00;21888.47;5054179;28;20438;-71
2021/08/02 02:49:18;;;;;;;0.80;0.73;;;;;;;16.07;100.00;21405.34;5043835;28;20463;-71
2021/08/02 02:51:48;;;;;;;0.70;0.70;;;;;;;16.11;100.00;20977.06;5039490;28;20470;-71
2021/08/02 02:54:18;;;;;;;0.70;0.70;;;;;;;16.08;100.00;20632.94;5038383;28;20816;-71
2021/08/02 02:56:52;;;;;;;0.70;0.70;;;;;;;16.12;100.00;20130.47;5055001;28;20441;-71
2021/08/02 02:59:20;;;;;;;0.70;0.60;;;;;;;16.19;100.00;19524.31;5054887;28;20446;-71
2021/08/02 03:01:50;;;;;;;0.80;0.70;;;;;;;16.30;100.00;19265.06;5054614;28;20418;-71
2021/08/02 03:04:28;;;;;;;0.70;0.67;;;;;;;16.26;100.00;18552.34;5055959;28;20889;-71
2021/08/02 03:06:58;;;;;;;0.70;0.60;;;;;;;16.30;100.00;18410.56;5047390;28;20471;-71
2021/08/02 03:09:31;;;;;;;0.70;0.67;;;;;;;16.29;100.00;18522.75;5043379;28;20479;-71
2021/08/02 03:12:00;;;;;;;0.77;0.70;;;;;;;16.27;100.00;18256.00;5054827;28;20521;-71
2021/08/02 03:14:27;;;;;;;0.70;0.70;;;;;;;16.26;100.00;17754.34;5055393;28;20429;-70
2021/08/02 03:16:55;;;;;;;0.70;0.60;;;;;;;16.21;100.00;17059.66;5035358;28;20500;-71
2021/08/02 03:19:22;;;;;;;0.70;0.60;;;;;;;16.22;100.00;16362.13;5037593;28;20539;-70
2021/08/02 03:21:50;;;;;;;0.70;0.70;;;;;;;16.17;100.00;16020.69;5035654;28;20434;-71
2021/08/02 03:24:23;;;;;;;0.70;0.63;;;;;;;16.18;100.00;14871.00;5035732;28;20470;-71
2021/08/02 03:26:55;;;;;;;0.80;0.73;;;;;;;16.13;100.00;14376.47;5035870;28;20418;-71
2021/08/02 03:29:27;;;;;;;0.70;0.60;;;;;;;16.12;100.00;13316.34;5036163;28;20427;-71
2021/08/02 03:32:02;;;;;;;0.70;0.60;;;;;;;16.10;100.00;13566.16;5034472;28;20456;-71
2021/08/02 03:34:33;;;;;;;0.70;0.63;;;;;;;16.07;100.00;12656.44;5035701;28;20842;-71
2021/08/02 03:37:06;;;;;;;0.70;0.60;;;;;;;16.02;100.00;11488.81;5035060;28;20417;-71
2021/08/02 03:39:35;;;;;;;0.70;0.70;;;;;;;16.01;100.00;10452.69;5034069;28;20505;-70
2021/08/02 03:42:04;;;;;;;0.77;0.73;;;;;;;16.02;100.00;9840.84;5033567;28;20413;-71
2021/08/02 03:44:34;;;;;;;0.70;0.70;;;;;;;16.01;100.00;9037.41;5050489;28;20470;-69
2021/08/02 03:47:03;;;;;;;0.70;0.70;;;;;;;16.00;100.00;8463.59;5054818;28;20494;-70
2021/08/02 03:49:30;;;;;;;0.70;0.60;;;;;;;16.01;100.00;8208.91;5037456;28;20469;-70
2021/08/02 03:52:00;;;;;;;0.70;0.67;;;;;;;16.00;100.00;7882.47;5035379;28;20562;-71
2021/08/02 03:54:29;;;;;;;0.70;0.67;;;;;;;15.99;100.00;7181.56;5035121;28;20452;-71
2021/08/02 03:56:57;;;;;;;0.70;0.60;;;;;;;15.99;100.00;6975.09;5034186;28;20437;-70
2021/08/02 03:59:25;;;;;;;0.70;0.60;;;;;;;15.99;100.00;6631.16;5035129;28;21012;-71
2021/08/02 04:01:54;;;;;;;0.70;0.70;;;;;;;15.97;100.00;6154.53;5041333;28;20432;-70
2021/08/02 04:04:21;;;;;;;0.70;0.60;;;;;;;15.99;100.00;5627.56;5038099;28;20439;-71
2021/08/02 04:06:48;;;;;;;0.70;0.70;;;;;;;15.95;100.00;5023.47;5035043;28;20409;-71
2021/08/02 04:09:15;;;;;;;0.70;0.63;;;;;;;15.99;100.00;4744.00;5033858;28;20518;-71
2021/08/02 04:11:45;;;;;;;0.70;0.70;;;;;;;16.02;100.00;4400.63;5033503;28;20469;-71
2021/08/02 04:14:13;;;;;;;0.70;0.60;;;;;;;16.01;100.00;3756.50;5034600;28;20428;-71
2021/08/02 04:16:41;;;;;;;0.70;0.60;;;;;;;16.03;100.00;3379.97;5032838;28;20949;-71
2021/08/02 04:19:10;;;;;;;0.73;0.67;;;;;;;16.03;100.00;3112.78;5033859;28;20471;-71
2021/08/02 04:21:37;;;;;;;0.70;0.70;;;;;;;16.06;100.00;3105.53;5034602;28;20849;-71
2021/08/02 04:24:05;;;;;;;0.80;0.70;;;;;;;16.05;100.00;2810.13;5034786;28;20445;-71
2021/08/02 04:26:32;;;;;;;0.70;0.67;;;;;;;16.09;100.00;2706.22;5034634;28;20432;-70
2021/08/02 04:28:59;;;;;;;0.70;0.70;;;;;;;16.08;100.00;2782.53;5033472;28;20465;-71
2021/08/02 04:31:28;;;;;;;0.70;0.70;;;;;;;16.09;100.00;2815.66;5034033;28;20448;-71
2021/08/02 04:33:57;;;;;;;0.70;0.60;;;;;;;16.08;100.00;2678.13;5034193;28;21003;-70
2021/08/02 04:36:25;;;;;;;0.70;0.70;;;;;;;16.05;100.00;2703.28;5032672;28;20886;-71
2021/08/02 04:38:53;;;;;;;0.77;0.70;;;;;;;16.06;100.00;2700.88;5033321;28;20451;-70
2021/08/02 04:41:20;;;;;;;0.70;0.70;;;;;;;16.02;100.00;2756.41;5033202;28;20820;-70
2021/08/02 04:43:47;;;;;;;0.70;0.70;;;;;;;15.99;100.00;2547.41;5047246;28;20800;-71
2021/08/02 04:46:14;;;;;;;0.70;0.60;;;;;;;16.02;100.00;2700.34;5045125;28;20487;-71
2021/08/02 04:48:41;;;;;;;0.73;0.70;;;;;;;16.03;100.00;2672.53;5044849;28;20516;-70
2021/08/02 04:51:08;;;;;;;0.70;0.60;;;;;;;16.03;100.00;2703.00;5037855;28;20439;-71
2021/08/02 04:53:36;;;;;;;0.70;0.60;;;;;;;16.00;100.00;2509.34;5033366;28;20570;-71
2021/08/02 04:56:04;;;;;;;0.70;0.60;;;;;;;15.96;100.00;2147.56;5033785;28;20430;-71
2021/08/02 04:58:31;;;;;;;0.80;0.80;;;;;;;16.05;100.00;2357.16;5031993;28;20424;-71
2021/08/02 05:00:58;;;;;;;0.70;0.60;;;;;;;16.08;100.00;2377.84;5033291;28;20431;-71
2021/08/02 05:03:26;;;;;;;0.70;0.70;;;;;;;16.10;100.00;2281.41;5051584;28;20439;-70
2021/08/02 05:05:54;;;;;;;0.70;0.70;;;;;;;16.16;100.00;2429.59;5051419;28;20455;-71
2021/08/02 05:08:22;;;;;;;0.70;0.70;;;;;;;16.24;100.00;2412.66;5053222;28;20488;-72
2021/08/02 05:10:50;;;;;;;0.70;0.63;;;;;;;16.27;100.00;2456.25;5053491;28;20890;-71
2021/08/02 05:13:17;;;;;;;0.70;0.70;;;;;;;16.46;100.00;3094.84;5052979;28;20485;-71
2021/08/02 05:15:44;;;;;;;0.77;0.73;;;;;;;16.46;100.00;3629.72;5052248;28;20511;-71
2021/08/02 05:18:13;;;;;;;0.73;0.70;;;;;;;16.54;100.00;4461.34;5052478;28;20423;-71
2021/08/02 05:20:41;;;;;;;0.70;0.70;;;;;;;16.54;100.00;5164.72;5053783;28;20419;-71
2021/08/02 05:23:08;;;;;;;0.70;0.60;;;;;;;16.52;100.00;5737.91;5049347;28;20544;-71
2021/08/02 05:25:38;;;;;;;0.70;0.70;;;;;;;16.45;100.00;5724.00;5053612;28;20913;-71
2021/08/02 05:28:06;;;;;;;0.73;0.70;;;;;;;16.49;100.00;6474.13;5052354;28;20456;-71
2021/08/02 05:30:34;;;;;;;0.70;0.63;;;;;;;16.50;100.00;6739.47;5052861;28;20483;-71
2021/08/02 05:33:01;;;;;;;0.70;0.70;;;;;;;16.61;100.00;7340.81;5052845;28;20496;-71
2021/08/02 05:35:28;;;;;;;0.70;0.60;;;;;;;16.78;100.00;8175.88;5052309;28;20754;-70
2021/08/02 05:37:55;;;;;;;0.70;0.63;;;;;;;16.83;100.00;8689.94;5053202;28;20529;-70
2021/08/02 05:40:22;;;;;;;0.70;0.70;;;;;;;16.89;100.00;9107.38;5052459;28;20412;-71
2021/08/02 05:42:49;;;;;;;0.70;0.70;;;;;;;17.00;100.00;10011.09;5054145;28;20481;-71
2021/08/02 05:45:17;;;;;;;0.70;0.60;;;;;;;17.12;100.00;10823.88;5053181;28;20465;-70
2021/08/02 05:47:44;;;;;;;0.70;0.60;;;;;;;17.15;100.00;12043.88;5054128;28;20466;-70
2021/08/02 05:50:11;;;;;;;1.23;1.13;;;;;;;16.99;100.00;11648.72;5049547;28;20441;-71
2021/08/02 05:52:41;;;;;;;0.70;0.70;;;;;;;17.00;100.00;12190.66;5035043;28;20566;-71
2021/08/02 05:55:09;;;;;;;0.70;0.70;;;;;;;17.09;100.00;12768.34;5032900;28;20824;-70
2021/08/02 05:57:36;;;;;;;0.70;0.60;;;;;;;17.25;100.00;13652.53;5043567;28;20450;-71
2021/08/02 06:00:05;;;;;;;0.70;0.70;;;;;;;17.36;100.00;14075.56;5032862;28;20435;-71
2021/08/02 06:02:40;;;;;;;0.77;0.70;;;;;;;17.39;100.00;15046.50;5032196;28;20493;-71
2021/08/02 06:05:08;;;;;;;0.70;0.60;;;;;;;17.48;100.00;14849.34;5033230;28;20424;-71
2021/08/02 06:07:41;;;;;;;0.80;0.70;;;;;;;17.51;100.00;14461.16;5032042;28;20507;-71
2021/08/02 06:10:10;;;;;;;0.70;0.60;;;;;;;17.58;100.00;14189.38;5031101;28;20441;-71
2021/08/02 06:12:37;;;;;;;0.70;0.70;;;;;;;17.69;100.00;13127.72;5032619;28;20457;-70
2021/08/02 06:15:06;;;;;;;0.70;0.60;;;;;;;17.48;100.00;11029.41;5035647;28;20461;-70
2021/08/02 06:17:40;;;;;;;0.70;0.70;;;;;;;17.37;100.00;9595.50;5050604;28;20520;-71
2021/08/02 06:20:08;;;;;;;0.80;0.70;;;;;;;17.37;100.00;9040.97;5053787;28;20912;-71
2021/08/02 06:22:35;;;;;;;0.70;0.60;;;;;;;17.23;100.00;5945.84;5055546;28;20440;-71
2021/08/02 06:25:04;;;;;;;0.80;0.70;;;;;;;17.18;100.00;5062.16;5056790;28;20787;-70
2021/08/02 06:27:31;;;;;;;0.70;0.70;;;;;;;17.14;100.00;5168.78;5054479;28;20419;-71
2021/08/02 06:29:59;;;;;;;0.77;0.70;;;;;;;17.16;100.00;3128.66;5056002;28;20519;-70
2021/08/02 06:32:28;;;;;;;0.70;0.60;;;;;;;17.25;100.00;924.66;5054173;28;20800;-71
2021/08/02 06:34:56;;;;;;;0.70;0.60;;;;;;;17.12;100.00;3395.88;5056561;28;20454;-70
2021/08/02 06:37:24;;;;;;;0.70;0.70;;;;;;;17.07;100.00;5343.63;5041501;28;20802;-71
2021/08/02 06:39:54;;;;;;;0.70;0.60;;;;;;;16.95;100.00;4339.63;5051489;28;20492;-70
2021/08/02 06:42:21;;;;;;;0.70;0.67;;;;;;;16.82;100.00;4868.16;5052241;28;20447;-71
2021/08/02 06:44:48;;;;;;;0.70;0.60;;;;;;;16.72;100.00;6218.03;5052180;28;20439;-70
2021/08/02 06:47:15;;;;;;;0.80;0.70;;;;;;;16.62;100.00;8126.81;5035300;28;21076;-70
2021/08/02 06:49:42;;;;;;;0.70;0.60;;;;;;;16.51;100.00;9897.81;5045247;28;20460;-70
2021/08/02 06:52:10;;;;;;;0.70;0.60;;;;;;;16.39;100.00;11791.69;5054423;28;20435;-70
2021/08/02 06:54:37;;;;;;;0.70;0.60;;;;;;;16.39;100.00;14614.34;5056165;28;20544;-70
2021/08/02 06:57:04;;;;;;;0.77;0.70;;;;;;;16.47;100.00;16779.38;5051178;28;20451;-70
2021/08/02 06:59:34;;;;;;;0.80;0.70;;;;;;;16.39;100.00;17894.44;5040364;28;20445;-70
2021/08/02 07:02:02;;;;;;;0.80;0.70;;;;;;;16.51;100.00;20265.97;5053940;28;20799;-70
2021/08/02 07:04:29;;;;;;;0.70;0.60;;;;;;;16.54;100.00;21291.50;5052798;28;20421;-70
2021/08/02 07:06:56;;;;;;;0.70;0.60;;;;;;;16.58;100.00;21582.81;5042865;28;20814;-71
2021/08/02 07:09:25;;;;;;;0.70;0.60;;;;;;;16.54;100.00;22341.75;5033773;28;20458;-70
2021/08/02 07:11:52;;;;;;;0.70;0.70;;;;;;;16.49;100.00;22744.34;5034214;28;20446;-70
2021/08/02 07:14:19;;;;;;;0.70;0.60;;;;;;;16.46;100.00;22317.75;5035839;28;20471;-71
2021/08/02 07:16:46;;;;;;;0.70;0.60;;;;;;;16.40;100.00;22369.38;5050583;28;20473;-70
2021/08/02 07:19:13;;;;;;;0.70;0.70;;;;;;;16.41;100.00;22456.91;5055705;28;20411;-70
2021/08/02 07:21:40;;;;;;;0.87;0.87;;;;;;;16.43;100.00;22398.88;5054006;28;20862;-70
2021/08/02 07:24:11;;;;;;;0.70;0.60;;;;;;;16.49;100.00;22526.78;5054397;28;20502;-70
2021/08/02 07:26:40;;;;;;;0.80;0.80;;;;;;;16.49;100.00;22126.94;5055724;28;20416;-70
2021/08/02 07:29:07;;;;;;;0.70;0.60;;;;;;;16.51;100.00;21569.41;5053900;28;20445;-70
2021/08/02 07:31:34;;;;;;;0.70;0.60;;;;;;;16.53;100.00;20807.06;5052283;28;20469;-70
2021/08/02 07:34:02;;;;;;;0.70;0.63;;;;;;;16.54;100.00;20221.09;5045500;28;20464;-70
2021/08/02 07:36:32;;;;;;;0.70;0.70;;;;;;;16.50;100.00;19917.41;5053397;28;20498;-70
2021/08/02 07:39:02;;;;;;;0.70;0.70;;;;;;;16.51;100.00;19846.13;5054453;28;20496;-70
2021/08/02 07:41:30;;;;;;;0.70;0.70;;;;;;;16.50;100.00;19205.81;5054053;28;20475;-70
2021/08/02 07:44:00;;;;;;;0.70;0.60;;;;;;;16.57;100.00;19336.50;5054373;28;20405;-70
2021/08/02 07:46:27;;;;;;;0.70;0.70;;;;;;;16.61;100.00;19286.84;5055390;28;20414;-70
2021/08/02 07:48:54;;;;;;;0.70;0.67;;;;;;;16.64;100.00;19024.31;5042637;28;20423;-70
2021/08/02 07:51:21;;;;;;;0.70;0.60;;;;;;;16.64;100.00;18870.94;5038313;28;20495;-70
2021/08/02 07:53:48;;;;;;;0.70;0.60;;;;;;;16.66;100.00;18715.34;5045761;28;20468;-70
2021/08/02 07:56:15;;;;;;;0.70;0.60;;;;;;;16.74;100.00;18943.66;5054192;28;20457;-70
2021/08/02 07:58:42;;;;;;;0.70;0.70;;;;;;;16.82;100.00;19166.91;5052544;28;21018;-71
2021/08/02 08:01:11;;;;;;;0.70;0.70;;;;;;;16.79;100.00;19119.47;5046033;28;20420;-70
2021/08/02 08:03:38;;;;;;;0.70;0.60;;;;;;;16.79;100.00;19498.66;5043190;28;20412;-71
2021/08/02 08:06:06;;;;;;;0.70;0.63;;;;;;;16.77;100.00;19723.22;5037533;28;20431;-70
2021/08/02 08:08:33;;;;;;;0.70;0.63;;;;;;;16.77;100.00;19825.47;5050548;28;20462;-70
2021/08/02 08:11:01;;;;;;;0.70;0.60;;;;;;;16.68;100.00;19263.94;5051074;28;20446;-71
2021/08/02 08:13:29;;;;;;;0.70;0.60;;;;;;;16.71;100.00;19382.88;5037675;28;20464;-72
2021/08/02 08:15:56;;;;;;;0.70;0.60;;;;;;;16.69;100.00;19540.66;5034309;28;20417;-71
2021/08/02 08:18:28;;;;;;;0.70;0.70;;;;;;;16.72;100.00;20005.50;5034113;28;20422;-71
2021/08/02 08:20:55;;;;;;;0.77;0.70;;;;;;;16.82;100.00;20421.69;5042469;28;20480;-71
2021/08/02 08:23:22;;;;;;;0.70;0.60;;;;;;;16.88;100.00;20429.44;5054789;28;20467;-71
2021/08/02 08:25:50;;;;;;;0.70;0.70;;;;;;;16.95;100.00;20964.84;5054678;28;20505;-71
2021/08/02 08:28:18;;;;;;;0.80;0.80;;;;;;;17.00;100.00;20628.63;5052404;28;20432;-71
2021/08/02 08:30:45;;;;;;;0.70;0.70;;;;;;;17.04;100.00;21432.69;5052937;28;20436;-71
2021/08/02 08:33:12;;;;;;;0.70;0.70;;;;;;;17.35;100.00;21386.53;5051967;28;20458;-71
2021/08/02 08:35:40;;;;;;;0.70;0.60;;;;;;;17.24;100.00;21161.41;5050774;28;20454;-71
2021/08/02 08:38:08;;;;;;;0.70;0.70;;;;;;;17.16;100.00;20645.41;5033511;28;20478;-71
2021/08/02 08:40:36;;;;;;;0.80;0.80;;;;;;;17.09;100.00;20601.53;5039506;28;20426;-71
2021/08/02 08:43:05;;;;;;;0.70;0.70;;;;;;;17.35;100.00;21306.81;5043699;28;20495;-71
2021/08/02 08:45:32;;;;;;;0.70;0.63;;;;;;;17.45;100.00;22036.72;5042559;28;20483;-71
2021/08/02 08:47:59;;;;;;;0.70;0.70;;;;;;;17.48;100.00;22045.72;5051571;28;20447;-71
2021/08/02 08:50:27;;;;;;;0.70;0.60;;;;;;;17.65;100.00;22769.13;5053580;28;20938;-71
2021/08/02 08:52:57;;;;;;;0.70;0.60;;;;;;;17.72;100.00;22145.91;5044351;28;20462;-71
2021/08/02 08:55:25;;;;;;;0.70;0.70;;;;;;;17.84;100.00;21242.44;5048396;28;20450;-71
2021/08/02 08:57:51;;;;;;;0.70;0.70;;;;;;;17.91;100.00;19697.56;5052669;28;20486;-70
2021/08/02 09:00:21;;;;;;;0.70;0.60;;;;;;;17.89;100.00;17965.72;5053783;28;20427;-70
2021/08/02 09:02:51;;;;;;;0.70;0.60;;;;;;;18.13;100.00;18056.34;5034076;28;20442;-71
2021/08/02 09:05:19;;;;;;;0.70;0.60;;;;;;;18.25;100.00;15132.00;5033208;28;20418;-70
2021/08/02 09:07:47;;;;;;;0.70;0.70;;;;;;;18.49;100.00;6981.81;5033560;28;20443;-70
2021/08/02 09:10:17;;;;;;;0.80;0.70;;;;;;;18.53;100.00;-9082.13;5032945;28;20815;-70
2021/08/02 09:12:50;;;;;;;0.70;0.70;;;;;;;18.56;100.00;-21112.13;5033920;28;20490;-71
2021/08/02 09:15:17;;;;;;;0.70;0.60;;;;;;;18.32;100.00;-21178.59;5032634;28;20475;-71
2021/08/02 09:17:45;;;;;;;0.70;0.60;;;;;;;18.07;100.00;-21171.88;5033441;28;20836;-71
2021/08/02 09:20:20;;;;;;;0.80;0.70;;;;;;;17.91;100.00;-21167.66;5041752;28;20523;-71
2021/08/02 09:22:49;;;;;;;0.70;0.70;;;;;;;17.90;100.00;-21167.38;5047989;28;20449;-70
2021/08/02 09:25:20;;;;;;;0.70;0.60;;;;;;;17.75;100.00;-21163.41;5044017;28;20442;-71
2021/08/02 09:27:48;;;;;;;0.70;0.60;;;;;;;18.19;100.00;-21175.19;5049022;28;20412;-71
2021/08/02 09:30:21;;;;;;;0.80;0.80;;;;;;;18.73;100.00;-21189.69;5037072;28;20463;-71
2021/08/02 09:32:52;;;;;;;0.70;0.60;;;;;;;19.34;100.00;-21205.97;5050534;28;20568;-71
2021/08/02 09:35:30;;;;;;;0.80;0.80;;;;;;;19.12;100.00;-21200.09;5046485;28;20453;-71
2021/08/02 09:38:00;;;;;;;0.80;0.80;;;;;;;19.73;100.00;-21216.38;5043807;28;20514;-70
2021/08/02 09:40:36;;;;;;;0.70;0.70;;;;;;;21.13;100.00;-21253.78;5052056;28;20391;-71
2021/08/02 09:43:03;;;;;;;0.70;0.60;;;;;;;22.13;100.00;-21280.66;5048703;28;20416;-70
2021/08/02 09:45:52;;;;;;;0.70;0.60;;;;;;;22.90;100.00;-21301.06;5051044;28;20432;-71
2021/08/02 09:48:20;;;;;;;0.70;0.50;;;;;;;23.39;100.00;-21314.13;5040424;28;20447;-70
2021/08/02 09:50:49;;;;;;;0.70;0.60;;;;;;;22.76;100.00;-21297.41;5051885;28;20440;-71
2021/08/02 09:53:18;;;;;;;0.70;0.60;;;;;;;21.98;100.00;-21276.41;5051825;28;20480;-71
2021/08/02 09:55:48;;;;;;;0.70;0.60;;;;;;;21.62;100.00;-21267.03;5052675;28;20421;-71
2021/08/02 09:58:18;;;;;;;0.70;0.60;;;;;;;21.06;100.00;-21252.03;5052885;28;20412;-71
2021/08/02 10:00:46;;;;;;;0.80;0.70;;;;;;;21.35;100.00;-21259.78;5050239;28;20411;-71
2021/08/02 10:03:14;;;;;;;0.70;0.60;;;;;;;21.09;100.00;-21252.84;5031680;28;20504;-71
2021/08/02 10:05:42;;;;;;;0.80;0.60;;;;;;;21.27;100.00;-21257.47;5032132;28;20409;-71
2021/08/02 10:08:29;;;;;;;0.70;0.50;;;;;;;21.92;100.00;-21274.94;5032899;28;20871;-70
2021/08/02 10:10:57;;;;;;;0.80;0.60;;;;;;;22.85;100.00;-21299.72;5032631;28;20479;-71
2021/08/02 10:13:28;;;;;;;0.70;0.57;;;;;;;23.90;100.00;-21327.72;5032301;28;20500;-71
2021/08/02 10:15:58;;;;;;;0.70;0.50;;;;;;;24.42;100.00;-21341.59;5040106;28;20455;-71
2021/08/02 10:18:27;;;;;;;0.70;0.50;;;;;;;23.12;100.00;-21306.91;5051300;28;20909;-72
2021/08/02 10:21:03;;;;;;;0.70;0.50;;;;;;;23.00;100.00;-21303.78;5051414;28;20440;-72
2021/08/02 10:23:30;;;;;;;0.70;0.50;;;;;;;24.26;100.00;-21337.22;5050116;28;20858;-71
2021/08/02 10:25:58;;;;;;;0.70;0.53;;;;;;;25.10;100.00;-21359.50;5050763;28;20474;-71
2021/08/02 10:28:26;;;;;;;0.70;0.50;;;;;;;23.74;100.00;-21323.38;5043825;28;20448;-71
2021/08/02 10:31:04;;;;;;;0.70;0.60;;;;;;;23.90;100.00;-21327.59;5043513;28;20449;-71
2021/08/02 10:33:35;;;;;;;0.70;0.50;;;;;;;24.57;100.00;-21345.53;5042785;28;20412;-71
2021/08/02 10:36:13;;;;;;;0.70;0.50;;;;;;;24.72;100.00;-21349.44;5043018;28;20438;-71
2021/08/02 10:38:41;;;;;;;0.70;0.50;;;;;;;25.91;100.00;-21381.03;5045189;28;20815;-71
2021/08/02 10:41:10;;;;;;;0.70;0.60;;;;;;;23.85;100.00;-21326.50;5049383;28;20830;-71
2021/08/02 10:43:39;;;;;;;0.70;0.50;;;;;;;23.49;100.00;-21316.84;5049079;28;20420;-71
2021/08/02 10:46:17;;;;;;;0.70;0.57;;;;;;;22.80;100.00;-21298.50;5049763;28;20439;-71
2021/08/02 10:48:46;;;;;;;0.70;0.60;;;;;;;21.89;100.00;-21274.09;5050350;28;20459;-71
2021/08/02 10:51:15;;;;;;;0.77;0.60;;;;;;;21.55;100.00;-21265.13;5048626;28;20432;-71
2021/08/02 10:53:42;;;;;;;0.70;0.60;;;;;;;21.07;100.00;-21252.28;5049396;28;20541;-71
2021/08/02 10:56:10;;;;;;;0.70;0.60;;;;;;;21.10;100.00;-21253.09;5026371;28;20436;-72
2021/08/02 10:58:42;;;;;;;0.70;0.60;;;;;;;20.24;100.00;-21230.03;5052336;28;20890;-72
2021/08/02 11:01:12;;;;;;;0.70;0.60;;;;;;;20.25;100.00;-21230.44;5050768;28;20526;-72
2021/08/02 11:03:41;;;;;;;0.70;0.60;;;;;;;20.04;100.00;-21224.72;5051709;28;20517;-72
2021/08/02 11:06:28;;;;;;;0.80;0.70;;;;;;;20.23;100.00;-21229.75;5051243;28;20424;-72
2021/08/02 11:08:57;;;;;;;0.80;0.60;;;;;;;19.98;100.00;-21223.19;5055936;28;20450;-72
2021/08/02 11:11:43;;;;;;;0.80;0.63;;;;;;;19.67;100.00;-21214.72;5054221;28;20948;-72
2021/08/02 11:14:12;;;;;;;0.80;0.70;;;;;;;20.02;100.00;-21224.28;5054621;28;20471;-72
2021/08/02 11:16:41;;;;;;;0.80;0.60;;;;;;;20.06;100.00;-21225.13;5055184;28;20444;-72
2021/08/02 11:19:23;;;;;;;0.70;0.60;;;;;;;20.65;100.00;-21241.09;5052586;28;20413;-71
2021/08/02 11:22:06;;;;;;;0.70;0.60;;;;;;;20.87;100.00;-21246.84;5046222;28;20788;-71
2021/08/02 11:24:35;;;;;;;0.70;0.60;;;;;;;21.23;100.00;-21256.66;5051547;28;20521;-72
2021/08/02 11:27:05;;;;;;;0.80;0.70;;;;;;;21.35;100.00;-21259.78;5054914;28;20458;-71
2021/08/02 11:29:36;;;;;;;0.70;0.70;;;;;;;21.50;100.00;-21263.63;5046950;28;20430;-72
2021/08/02 11:32:05;;;;;;;0.70;0.60;;;;;;;21.75;100.00;-21270.44;5039148;28;20440;-72
2021/08/02 11:34:33;;;;;;;0.80;0.60;;;;;;;22.16;100.00;-21281.34;5040646;28;20456;-71
2021/08/02 11:37:03;;;;;;;0.70;0.60;;;;;;;22.19;100.00;-21282.16;5035477;28;20425;-72
2021/08/02 11:39:31;;;;;;;0.80;0.70;;;;;;;21.78;100.00;-21271.25;5050977;28;20459;-72